createdAt,value
2022-11-16T00:00:24.566Z,0.82
2022-11-16T00:02:54.611Z,0.57
2022-11-16T00:05:27.137Z,0.43
2022-11-16T00:07:56.738Z,0.60
2022-11-16T00:10:25.118Z,0.70
2022-11-16T00:12:53.467Z,0.70
2022-11-16T00:15:21.728Z,0.70
2022-11-16T00:17:52.631Z,0.57
2022-11-16T00:20:22.170Z,0.82
2022-11-16T00:22:53.151Z,0.60
2022-11-16T00:25:21.500Z,0.82
2022-11-16T00:27:50.781Z,0.90
2022-11-16T00:30:19.130Z,0.73
2022-11-16T00:32:47.467Z,0.57
2022-11-16T00:35:17.153Z,0.52
2022-11-16T00:37:45.442Z,0.65
2022-11-16T00:40:19.212Z,0.70
2022-11-16T00:42:49.998Z,0.60
2022-11-16T00:45:18.393Z,0.70
2022-11-16T00:47:49.056Z,0.70
2022-11-16T00:50:18.948Z,0.43
2022-11-16T00:52:47.233Z,0.50
2022-11-16T00:55:15.654Z,0.70
2022-11-16T00:57:43.945Z,1.25
2022-11-16T01:00:13.062Z,0.50
2022-11-16T01:02:41.745Z,0.60
2022-11-16T01:05:10.499Z,0.63
2022-11-16T01:07:42.694Z,0.63
2022-11-16T01:10:13.025Z,0.73
2022-11-16T01:12:41.425Z,0.50
2022-11-16T01:15:13.179Z,0.50
2022-11-16T01:17:50.713Z,0.60
2022-11-16T01:20:20.185Z,0.57
2022-11-16T01:22:49.825Z,0.60
2022-11-16T01:25:18.221Z,0.60
2022-11-16T01:27:46.578Z,0.40
2022-11-16T01:30:15.592Z,0.60
2022-11-16T01:32:43.899Z,0.52
2022-11-16T01:35:15.440Z,0.60
2022-11-16T01:37:43.724Z,0.50
2022-11-16T01:40:14.082Z,0.57
2022-11-16T01:42:42.514Z,0.60
2022-11-16T01:45:22.771Z,0.40
2022-11-16T01:47:51.135Z,0.52
2022-11-16T01:50:19.432Z,0.32
2022-11-16T01:52:49.198Z,0.60
2022-11-16T01:55:18.941Z,0.68
2022-11-16T01:57:47.213Z,0.60
2022-11-16T02:00:17.313Z,0.50
2022-11-16T02:02:45.607Z,0.68
2022-11-16T02:05:17.533Z,0.50
2022-11-16T02:08:15.003Z,0.50
2022-11-16T02:10:53.630Z,0.60
2022-11-16T02:13:30.840Z,0.63
2022-11-16T02:16:02.118Z,0.60
2022-11-16T02:18:34.136Z,0.60
2022-11-16T02:21:08.756Z,0.47
2022-11-16T02:24:06.145Z,0.60
2022-11-16T02:27:03.340Z,0.60
2022-11-16T02:29:34.741Z,0.70
2022-11-16T02:32:04.716Z,0.50
2022-11-16T02:34:37.828Z,0.40
2022-11-16T02:37:07.992Z,0.60
2022-11-16T02:39:36.257Z,0.50
2022-11-16T02:42:04.942Z,0.50
2022-11-16T02:44:36.317Z,0.50
2022-11-16T02:47:06.333Z,0.43
2022-11-16T02:49:37.540Z,0.57
2022-11-16T02:52:05.813Z,0.60
2022-11-16T02:54:34.106Z,0.77
2022-11-16T02:57:32.876Z,0.70
2022-11-16T03:00:02.620Z,0.50
2022-11-16T03:02:33.106Z,0.60
2022-11-16T03:05:02.669Z,0.68
2022-11-16T03:07:34.837Z,0.47
2022-11-16T03:10:03.176Z,0.52
2022-11-16T03:12:31.585Z,0.50
2022-11-16T03:15:02.391Z,0.32
2022-11-16T03:17:31.741Z,0.70
2022-11-16T03:20:02.434Z,0.68
2022-11-16T03:22:34.249Z,0.50
2022-11-16T03:25:05.904Z,0.40
2022-11-16T03:27:39.370Z,0.60
2022-11-16T03:30:09.750Z,0.40
2022-11-16T03:32:42.714Z,0.50
2022-11-16T03:35:14.207Z,0.75
2022-11-16T03:37:46.597Z,0.65
2022-11-16T03:40:14.896Z,0.50
2022-11-16T03:42:43.172Z,0.57
2022-11-16T03:45:13.031Z,0.60
2022-11-16T03:47:41.567Z,0.60
2022-11-16T03:50:10.824Z,0.80
2022-11-16T03:52:39.228Z,0.60
2022-11-16T03:55:07.885Z,0.55
2022-11-16T03:57:36.163Z,0.45
2022-11-16T04:00:05.256Z,0.50
2022-11-16T04:02:34.877Z,0.40
2022-11-16T04:05:30.066Z,0.60
2022-11-16T04:08:18.251Z,0.28
2022-11-16T04:11:04.089Z,0.45
2022-11-16T04:13:51.015Z,0.40
2022-11-16T04:16:37.028Z,0.70
2022-11-16T04:19:24.326Z,0.40
2022-11-16T04:22:10.812Z,0.47
2022-11-16T04:24:40.176Z,0.50
2022-11-16T04:27:31.943Z,0.40
2022-11-16T04:30:00.233Z,0.70
2022-11-16T04:32:48.479Z,0.47
2022-11-16T04:35:44.426Z,0.65
2022-11-16T04:38:12.750Z,0.43
2022-11-16T04:40:41.112Z,0.80
2022-11-16T04:43:09.377Z,0.63
2022-11-16T04:45:55.361Z,0.50
2022-11-16T04:48:23.633Z,0.55
2022-11-16T04:50:53.263Z,0.40
2022-11-16T04:53:22.541Z,0.40
2022-11-16T04:55:51.076Z,0.40
2022-11-16T04:58:19.402Z,0.68
2022-11-16T05:00:47.661Z,0.60
2022-11-16T05:03:15.932Z,0.52
2022-11-16T05:05:46.962Z,0.50
2022-11-16T05:08:16.590Z,0.60
2022-11-16T05:10:44.898Z,0.45
2022-11-16T05:13:13.164Z,0.40
2022-11-16T05:15:41.416Z,0.43
2022-11-16T05:18:09.687Z,0.40
2022-11-16T05:20:55.676Z,0.45
2022-11-16T05:23:42.884Z,0.57
2022-11-16T05:26:11.166Z,0.50
2022-11-16T05:28:39.438Z,0.43
2022-11-16T05:31:14.809Z,0.57
2022-11-16T05:33:43.796Z,0.32
2022-11-16T05:36:12.059Z,0.50
2022-11-16T05:38:44.749Z,0.50
2022-11-16T05:41:13.051Z,0.70
2022-11-16T05:43:41.382Z,0.52
2022-11-16T05:46:09.677Z,0.68
2022-11-16T05:48:37.951Z,0.40
2022-11-16T05:51:07.135Z,0.60
2022-11-16T05:53:35.500Z,0.50
2022-11-16T05:56:05.281Z,0.40
2022-11-16T05:58:33.969Z,0.40
2022-11-16T06:01:02.418Z,0.40
2022-11-16T06:03:30.835Z,0.70
2022-11-16T06:05:59.302Z,0.43
2022-11-16T06:08:27.606Z,0.45
2022-11-16T06:10:55.865Z,0.30
2022-11-16T06:13:27.168Z,0.50
2022-11-16T06:15:55.442Z,0.40
2022-11-16T06:18:23.707Z,0.50
2022-11-16T06:20:51.975Z,0.50
2022-11-16T06:23:23.185Z,0.52
2022-11-16T06:25:54.298Z,0.63
2022-11-16T06:28:25.129Z,0.75
2022-11-16T06:30:57.233Z,0.50
2022-11-16T06:33:30.833Z,0.40
2022-11-16T06:36:01.648Z,0.40
2022-11-16T06:38:32.109Z,0.50
2022-11-16T06:41:03.229Z,0.75
2022-11-16T06:43:31.517Z,0.80
2022-11-16T06:46:01.153Z,0.50
2022-11-16T06:48:29.461Z,0.60
2022-11-16T06:50:57.764Z,0.50
2022-11-16T06:53:29.185Z,0.50
2022-11-16T06:56:02.145Z,1.05
2022-11-16T06:58:33.651Z,0.50
2022-11-16T07:01:08.121Z,0.60
2022-11-16T07:03:36.401Z,0.40
2022-11-16T07:06:07.629Z,0.60
2022-11-16T07:08:36.309Z,0.80
2022-11-16T07:11:05.237Z,0.50
2022-11-16T07:13:33.882Z,0.52
2022-11-16T07:16:04.735Z,0.60
2022-11-16T07:18:35.593Z,0.73
2022-11-16T07:21:07.249Z,0.50
2022-11-16T07:23:35.611Z,0.50
2022-11-16T07:26:06.837Z,0.75
2022-11-16T07:28:40.984Z,0.75
2022-11-16T07:31:13.905Z,0.68
2022-11-16T07:33:43.531Z,0.63
2022-11-16T07:36:12.790Z,0.70
2022-11-16T07:38:41.073Z,0.60
2022-11-16T07:41:10.445Z,0.70
2022-11-16T07:43:40.070Z,0.50
2022-11-16T07:49:01.726Z,0.73
2022-11-16T07:51:30.107Z,0.50
2022-11-16T07:53:58.365Z,0.73
2022-11-16T07:56:26.662Z,0.65
2022-11-16T07:58:54.947Z,0.50
2022-11-16T08:01:23.274Z,0.30
2022-11-16T08:03:53.568Z,0.60
2022-11-16T08:06:24.817Z,0.60
2022-11-16T08:08:58.079Z,0.52
2022-11-16T08:11:27.082Z,0.60
2022-11-16T08:13:55.354Z,1.08
2022-11-16T08:16:23.783Z,0.40
2022-11-16T08:18:54.904Z,0.57
2022-11-16T08:21:24.667Z,0.50
2022-11-16T08:23:58.207Z,0.60
2022-11-16T08:26:27.114Z,0.60
2022-11-16T08:28:57.343Z,0.60
2022-11-16T08:31:28.316Z,0.82
2022-11-16T08:34:10.727Z,0.70
2022-11-16T08:36:43.104Z,0.93
2022-11-16T08:39:11.427Z,0.90
2022-11-16T08:41:42.068Z,0.70
2022-11-16T08:44:10.488Z,0.80
2022-11-16T08:46:39.805Z,0.90
2022-11-16T08:49:08.084Z,1.13
2022-11-16T08:51:36.381Z,1.20
2022-11-16T08:54:06.328Z,1.50
2022-11-16T08:56:35.048Z,1.65
2022-11-16T08:59:06.128Z,1.60
2022-11-16T09:01:37.364Z,3.15
2022-11-16T09:04:05.929Z,1.30
2022-11-16T09:06:34.266Z,1.48
2022-11-16T09:09:02.652Z,1.70
2022-11-16T09:11:32.430Z,1.42
2022-11-16T09:14:00.704Z,1.52
2022-11-16T09:16:30.949Z,1.75
2022-11-16T09:18:59.235Z,1.77
2022-11-16T09:21:28.324Z,1.60
2022-11-16T09:23:57.060Z,1.30
2022-11-16T09:26:27.751Z,1.70
2022-11-16T09:28:58.212Z,1.90
2022-11-16T09:31:27.301Z,1.42
2022-11-16T09:33:58.171Z,1.55
2022-11-16T09:36:26.781Z,1.48
2022-11-16T09:39:29.439Z,1.42
2022-11-16T09:41:49.493Z,2.00
2022-11-16T09:44:29.802Z,1.85
2022-11-16T09:46:58.882Z,2.30
2022-11-16T09:49:31.506Z,1.45
2022-11-16T09:52:01.369Z,1.70
2022-11-16T09:54:30.697Z,2.10
2022-11-16T09:56:59.902Z,2.10
2022-11-16T09:59:33.629Z,1.77
2022-11-16T10:02:03.388Z,1.58
2022-11-16T10:04:36.831Z,1.60
2022-11-16T10:07:07.089Z,1.98
2022-11-16T10:09:35.443Z,1.55
2022-11-16T10:12:08.605Z,1.50
2022-11-16T10:15:12.820Z,1.70
2022-11-16T10:17:52.514Z,1.80
2022-11-16T10:20:34.821Z,1.45
2022-11-16T10:23:06.332Z,1.30
2022-11-16T10:25:37.942Z,1.10
2022-11-16T10:28:21.622Z,1.73
2022-11-16T10:30:54.255Z,1.40
2022-11-16T10:33:22.739Z,1.38
2022-11-16T10:35:53.561Z,1.42
2022-11-16T10:38:24.003Z,1.33
2022-11-16T10:40:53.663Z,1.90
2022-11-16T10:43:23.592Z,1.70
2022-11-16T10:45:55.845Z,1.33
2022-11-16T10:48:39.888Z,1.33
2022-11-16T10:51:08.565Z,1.40
2022-11-16T10:53:37.793Z,1.02
2022-11-16T10:56:18.488Z,1.20
2022-11-16T10:58:54.768Z,1.30
2022-11-16T11:01:37.799Z,1.40
2022-11-16T11:04:21.207Z,1.40
2022-11-16T11:06:51.356Z,1.10
2022-11-16T11:09:29.879Z,1.15
2022-11-16T11:12:20.025Z,1.15
2022-11-16T11:15:06.756Z,1.27
2022-11-16T11:17:36.648Z,1.13
2022-11-16T11:20:09.223Z,1.15
2022-11-16T11:22:43.628Z,0.95
2022-11-16T11:25:19.848Z,1.30
2022-11-16T11:27:48.104Z,1.30
2022-11-16T11:30:21.837Z,0.75
2022-11-16T11:32:52.813Z,0.73
2022-11-16T11:35:27.930Z,0.82
2022-11-16T11:37:57.258Z,1.10
2022-11-16T11:40:26.052Z,0.98
2022-11-16T11:42:59.248Z,1.38
2022-11-16T11:45:45.880Z,1.08
2022-11-16T11:48:30.784Z,0.80
2022-11-16T11:50:59.954Z,0.80
2022-11-16T11:53:39.813Z,1.33
2022-11-16T11:56:08.802Z,0.95
2022-11-16T11:58:39.736Z,0.80
2022-11-16T12:01:35.326Z,0.82
2022-11-16T12:04:29.634Z,0.90
2022-11-16T12:06:59.758Z,0.55
2022-11-16T12:09:35.434Z,0.70
2022-11-16T12:12:17.770Z,1.00
2022-11-16T12:14:53.452Z,0.68
2022-11-16T12:17:24.480Z,1.27
2022-11-16T12:20:14.010Z,1.02
2022-11-16T12:22:53.647Z,1.45
2022-11-16T12:25:25.376Z,0.88
2022-11-16T12:28:03.947Z,0.90
2022-11-16T12:30:33.451Z,0.98
2022-11-16T12:33:13.485Z,1.00
2022-11-16T12:35:56.789Z,0.90
2022-11-16T12:38:38.127Z,0.88
2022-11-16T12:41:16.693Z,0.80
2022-11-16T12:43:47.217Z,1.15
2022-11-16T12:46:19.763Z,0.98
2022-11-16T12:49:05.801Z,0.70
2022-11-16T12:51:50.081Z,1.00
2022-11-16T12:54:35.757Z,0.60
2022-11-16T12:57:08.463Z,1.08
2022-11-16T12:59:46.476Z,0.80
2022-11-16T13:02:18.916Z,0.68
2022-11-16T13:04:48.079Z,0.63
2022-11-16T13:07:20.084Z,1.00
2022-11-16T13:09:49.639Z,1.00
2022-11-16T13:12:19.893Z,0.90
2022-11-16T13:14:48.836Z,0.90
2022-11-16T13:17:20.686Z,1.02
2022-11-16T13:20:00.432Z,0.95
2022-11-16T13:22:30.118Z,0.70
2022-11-16T13:25:04.946Z,1.20
2022-11-16T13:27:37.252Z,0.63
2022-11-16T13:30:10.018Z,0.70
2022-11-16T13:32:46.271Z,0.88
2022-11-16T13:35:15.620Z,0.80
2022-11-16T13:37:49.781Z,0.50
2022-11-16T13:40:32.417Z,0.60
2022-11-16T13:43:15.315Z,0.68
2022-11-16T13:45:48.102Z,0.60
2022-11-16T13:48:19.037Z,0.63
2022-11-16T13:50:52.462Z,0.40
2022-11-16T13:54:25.164Z,0.52
2022-11-16T13:56:25.606Z,0.85
2022-11-16T13:58:57.435Z,0.57
2022-11-16T14:01:26.683Z,0.70
2022-11-16T14:04:25.130Z,0.60
2022-11-16T14:06:58.062Z,0.63
2022-11-16T14:09:49.272Z,0.68
2022-11-16T14:12:59.745Z,0.73
2022-11-16T14:15:35.460Z,0.75
2022-11-16T14:18:35.072Z,0.65
2022-11-16T14:21:16.206Z,0.80
2022-11-16T14:24:12.609Z,0.80
2022-11-16T14:26:49.003Z,0.93
2022-11-16T14:29:41.395Z,0.85
2022-11-16T14:32:19.210Z,0.60
2022-11-16T14:34:48.653Z,0.90
2022-11-16T14:37:35.359Z,0.60
2022-11-16T14:40:06.128Z,1.03
2022-11-16T14:43:01.464Z,0.80
2022-11-16T14:45:27.490Z,0.50
2022-11-16T14:47:57.143Z,0.70
2022-11-16T14:50:26.971Z,0.60
2022-11-16T14:52:58.089Z,0.50
2022-11-16T14:55:27.177Z,0.85
2022-11-16T14:58:09.514Z,0.75
2022-11-16T15:00:38.197Z,0.93
2022-11-16T15:03:06.547Z,0.73
2022-11-16T15:05:35.528Z,0.50
2022-11-16T15:08:10.247Z,0.60
2022-11-16T15:10:38.664Z,0.88
2022-11-16T15:13:06.940Z,0.63
2022-11-16T15:15:37.165Z,0.75
2022-11-16T15:18:13.299Z,0.63
2022-11-16T15:20:48.752Z,0.80
2022-11-16T15:23:17.092Z,0.65
2022-11-16T15:25:46.097Z,0.65
2022-11-16T15:28:17.776Z,0.70
2022-11-16T15:30:49.525Z,0.63
2022-11-16T15:33:18.987Z,1.00
2022-11-16T15:35:47.460Z,0.50
2022-11-16T15:38:16.773Z,0.80
2022-11-16T15:40:47.994Z,0.60
2022-11-16T15:43:16.260Z,0.75
2022-11-16T15:45:45.686Z,0.80
2022-11-16T15:48:18.647Z,0.95
2022-11-16T15:51:02.975Z,0.80
2022-11-16T15:53:35.511Z,0.52
2022-11-16T15:56:04.468Z,0.70
2022-11-16T15:58:33.423Z,1.08
2022-11-16T16:01:01.967Z,0.95
2022-11-16T16:03:35.514Z,0.70
2022-11-16T16:06:09.423Z,0.57
2022-11-16T16:08:38.470Z,0.80
2022-11-16T16:11:10.175Z,0.60
2022-11-16T16:13:39.960Z,0.90
2022-11-16T16:16:21.081Z,0.70
2022-11-16T16:18:50.715Z,0.80
2022-11-16T16:21:19.060Z,0.60
2022-11-16T16:23:47.798Z,0.55
2022-11-16T16:26:16.118Z,1.00
2022-11-16T16:28:44.533Z,0.50
2022-11-16T16:31:13.009Z,0.57
2022-11-16T16:33:41.747Z,0.60
2022-11-16T16:36:13.554Z,0.50
2022-11-16T16:38:41.852Z,0.70
2022-11-16T16:41:19.853Z,0.82
2022-11-16T16:43:52.236Z,0.90
2022-11-16T16:46:21.589Z,1.00
2022-11-16T16:48:49.951Z,0.60
2022-11-16T16:51:19.710Z,0.60
2022-11-16T16:53:49.892Z,0.88
2022-11-16T16:56:19.865Z,1.17
2022-11-16T16:58:48.143Z,0.85
2022-11-16T17:01:16.464Z,0.57
2022-11-16T17:03:44.786Z,0.60
2022-11-16T17:06:20.558Z,0.60
2022-11-16T17:08:48.838Z,0.80
2022-11-16T17:11:18.504Z,0.55
2022-11-16T17:13:46.782Z,1.00
2022-11-16T17:16:15.057Z,0.60
2022-11-16T17:18:44.424Z,0.45
2022-11-16T17:21:12.931Z,0.50
2022-11-16T17:23:42.622Z,0.40
2022-11-16T17:26:10.896Z,0.60
2022-11-16T17:28:41.754Z,0.40
2022-11-16T17:31:11.355Z,0.60
2022-11-16T17:33:40.238Z,0.52
2022-11-16T17:36:09.341Z,0.80
2022-11-16T17:38:41.277Z,0.60
2022-11-16T17:41:12.582Z,0.70
2022-11-16T17:43:43.542Z,0.50
2022-11-16T17:46:12.835Z,0.50
2022-11-16T17:48:49.369Z,0.82
2022-11-16T17:51:18.443Z,0.75
2022-11-16T17:53:46.837Z,0.90
2022-11-16T17:56:17.613Z,0.75
2022-11-16T17:58:46.029Z,0.95
2022-11-16T18:01:14.439Z,0.77
2022-11-16T18:03:47.716Z,0.85
2022-11-16T18:06:17.053Z,1.00
2022-11-16T18:08:45.459Z,1.02
2022-11-16T18:11:16.930Z,1.30
2022-11-16T18:13:46.781Z,1.20
2022-11-16T18:16:18.564Z,1.20
2022-11-16T18:18:47.571Z,1.27
2022-11-16T18:21:20.588Z,1.67
2022-11-16T18:23:49.510Z,1.60
2022-11-16T18:26:20.404Z,2.08
2022-11-16T18:28:50.060Z,1.88
2022-11-16T18:31:19.175Z,2.08
2022-11-16T18:33:51.895Z,1.80
2022-11-16T18:36:20.931Z,1.90
2022-11-16T18:38:52.225Z,2.17
2022-11-16T18:41:21.115Z,2.10
2022-11-16T18:43:51.767Z,1.75
2022-11-16T18:46:20.170Z,2.17
2022-11-16T18:48:51.142Z,1.77
2022-11-16T18:51:19.698Z,1.90
2022-11-16T18:53:48.125Z,1.98
2022-11-16T18:56:22.316Z,2.08
2022-11-16T18:58:54.747Z,1.90
2022-11-16T19:01:23.961Z,2.50
2022-11-16T19:03:52.601Z,1.67
2022-11-16T19:06:23.519Z,1.75
2022-11-16T19:08:56.335Z,1.50
2022-11-16T19:11:24.923Z,1.48
2022-11-16T19:13:55.122Z,1.40
2022-11-16T19:16:23.772Z,1.50
2022-11-16T19:18:52.085Z,1.65
2022-11-16T19:21:23.220Z,1.40
2022-11-16T19:23:52.876Z,1.05
2022-11-16T19:26:24.565Z,1.17
2022-11-16T19:28:54.349Z,1.30
2022-11-16T19:31:23.492Z,1.40
2022-11-16T19:33:54.901Z,1.00
2022-11-16T19:36:23.485Z,1.05
2022-11-16T19:38:51.813Z,1.10
2022-11-16T19:41:21.533Z,0.95
2022-11-16T19:43:51.229Z,1.25
2022-11-16T19:46:21.444Z,1.48
2022-11-16T19:48:50.238Z,1.30
2022-11-16T19:51:20.205Z,1.17
2022-11-16T19:53:48.573Z,0.85
2022-11-16T19:56:19.928Z,1.15
2022-11-16T19:58:48.218Z,0.95
2022-11-16T20:01:20.848Z,1.15
2022-11-16T20:03:51.382Z,0.93
2022-11-16T20:06:22.749Z,0.88
2022-11-16T20:08:51.552Z,1.08
2022-11-16T20:11:20.750Z,0.82
2022-11-16T20:13:49.152Z,1.00
2022-11-16T20:16:17.761Z,0.88
2022-11-16T20:18:47.641Z,0.88
2022-11-16T20:21:19.028Z,0.70
2022-11-16T20:23:47.916Z,2.03
2022-11-16T20:26:16.218Z,0.80
2022-11-16T20:28:44.553Z,1.00
2022-11-16T20:31:13.678Z,0.80
2022-11-16T20:33:42.067Z,0.75
2022-11-16T20:36:12.456Z,1.10
2022-11-16T20:38:40.841Z,0.63
2022-11-16T20:41:10.705Z,0.85
2022-11-16T20:43:42.720Z,0.77
2022-11-16T20:46:11.770Z,0.88
2022-11-16T20:48:40.472Z,0.60
2022-11-16T20:51:09.282Z,1.02
2022-11-16T20:53:38.910Z,0.60
2022-11-16T20:56:08.009Z,0.65
2022-11-16T20:58:40.275Z,0.63
2022-11-16T21:01:09.411Z,0.75
2022-11-16T21:03:38.052Z,0.70
2022-11-16T21:06:08.501Z,0.70
2022-11-16T21:08:38.480Z,0.63
2022-11-16T21:11:11.007Z,0.88
2022-11-16T21:13:56.948Z,0.82
2022-11-16T21:16:25.277Z,0.90
2022-11-16T21:18:54.418Z,0.70
2022-11-16T21:21:22.835Z,0.70
2022-11-16T21:23:53.543Z,0.50
2022-11-16T21:26:22.433Z,0.40
2022-11-16T21:28:53.883Z,0.60
2022-11-16T21:31:22.986Z,0.50
2022-11-16T21:33:52.586Z,0.70
2022-11-16T21:36:22.020Z,0.60
2022-11-16T21:38:51.780Z,0.60
2022-11-16T21:41:22.398Z,0.55
2022-11-16T21:43:50.686Z,0.50
2022-11-16T21:46:19.791Z,0.68
2022-11-16T21:48:48.182Z,0.75
2022-11-16T21:51:17.359Z,0.60
2022-11-16T21:53:45.780Z,0.93
2022-11-16T21:56:16.240Z,0.60
2022-11-16T21:58:44.617Z,0.63
2022-11-16T22:01:13.165Z,0.50
2022-11-16T22:03:41.570Z,0.93
2022-11-16T22:06:31.220Z,0.80
2022-11-16T22:08:59.517Z,0.82
2022-11-16T22:11:31.089Z,1.00
2022-11-16T22:13:59.388Z,0.55
2022-11-16T22:16:32.664Z,0.63
2022-11-16T22:19:01.099Z,0.80
2022-11-16T22:21:29.486Z,0.52
2022-11-16T22:23:58.103Z,0.77
2022-11-16T22:26:26.470Z,0.50
2022-11-16T22:28:56.162Z,0.50
2022-11-16T22:31:24.431Z,0.70
2022-11-16T22:33:53.456Z,0.98
2022-11-16T22:36:21.866Z,0.68
2022-11-16T22:38:50.128Z,0.60
2022-11-16T22:41:18.434Z,0.70
2022-11-16T22:43:49.450Z,0.88
2022-11-16T22:46:19.116Z,0.63
2022-11-16T22:48:47.914Z,0.80
2022-11-16T22:51:18.792Z,1.00
2022-11-16T22:53:47.129Z,0.77
2022-11-16T22:56:15.482Z,0.82
2022-11-16T22:58:43.758Z,0.77
2022-11-16T23:01:12.651Z,0.77
2022-11-16T23:03:42.301Z,0.80
2022-11-16T23:06:10.602Z,0.70
2022-11-16T23:08:39.984Z,0.70
2022-11-16T23:11:26.805Z,0.68
2022-11-16T23:14:12.765Z,0.80
2022-11-16T23:16:41.117Z,0.70
2022-11-16T23:19:25.484Z,0.70
2022-11-16T23:22:14.353Z,0.77
2022-11-16T23:25:00.255Z,0.63
2022-11-16T23:27:32.532Z,0.70
2022-11-16T23:30:12.156Z,0.70
2022-11-16T23:32:41.310Z,0.70
2022-11-16T23:35:11.044Z,0.60
2022-11-16T23:37:58.475Z,0.75
2022-11-16T23:40:27.863Z,0.68
2022-11-16T23:43:13.750Z,0.77
2022-11-16T23:45:44.628Z,1.00
2022-11-16T23:48:14.195Z,0.95
2022-11-16T23:50:43.865Z,0.50
2022-11-16T23:53:12.311Z,0.65
2022-11-16T23:55:40.724Z,0.68
2022-11-16T23:58:14.710Z,0.82
